This is the latest recevied weather packets stored in our database for station/object SQ2WB-13. If no packets are shown the sender has not sent any weather packets the latest 10 day(s).
| Time | Temp. | Humidity | Pressure | Rain* | Wind** | Luminosity | Snow |
|---|---|---|---|---|---|---|---|
| 1777622402 | 16.67° C | 46% | 1018.2 hPa | 0 mm | - | - | - |
| 1777621502 | 15.56° C | 48% | 1018.2 hPa | 0 mm | - | - | - |
| 1777620601 | 15° C | 47% | 1018.2 hPa | 0 mm | - | - | - |
| 1777619702 | 15° C | 46% | 1018.2 hPa | 0 mm | - | - | - |
| 1777618802 | 13.89° C | 49% | 1018.2 hPa | 0 mm | - | - | - |
| 1777617902 | 13.89° C | 50% | 1018.2 hPa | 0 mm | - | - | - |
| 1777617002 | 12.78° C | 52% | 1018.2 hPa | 0 mm | - | - | - |
| 1777616102 | 10.56° C | 54% | 1018.2 hPa | 0 mm | - | - | - |
| 1777615201 | 10.56° C | 56% | 1018.2 hPa | 0 mm | - | - | - |
| 1777614301 | 10° C | 59% | 1018.2 hPa | 0 mm | - | - | - |
| 1777613402 | 8.89° C | 61% | 1018.2 hPa | 0 mm | - | - | - |
| 1777612502 | 7.78° C | 65% | 1017.9 hPa | 0 mm | - | - | - |
| 1777611602 | 6.67° C | 67% | 1017.9 hPa | 0 mm | - | - | - |
| 1777610701 | 5.56° C | 68% | 1018.2 hPa | 0 mm | - | - | - |
| 1777609802 | 5° C | 70% | 1017.9 hPa | 0 mm | - | - | - |
| 1777608901 | 5° C | 71% | 1017.9 hPa | 0 mm | - | - | - |
| 1777608001 | 3.89° C | 72% | 1017.9 hPa | 0 mm | - | - | - |
| 1777607101 | 3.89° C | 73% | 1017.9 hPa | 0 mm | - | - | - |
| 1777606201 | 3.89° C | 72% | 1017.9 hPa | 0 mm | - | - | - |
| 1777605301 | 5° C | 70% | 1017.9 hPa | 0 mm | - | - | - |
| 1777604401 | 5° C | 70% | 1017.9 hPa | 0 mm | - | - | - |
| 1777603501 | 5° C | 69% | 1017.9 hPa | 0 mm | - | - | - |
| 1777602601 | 5° C | 68% | 1017.9 hPa | 0 mm | - | - | - |
| 1777601702 | 5.56° C | 67% | 1017.9 hPa | 0 mm | - | - | - |
| 1777600802 | 5.56° C | 66% | 1017.9 hPa | 0 mm | - | - | - |
* Rain latest hour (hover to see other rain measurements)
** Current wind speed in m/s (hover to see current wind gust speed)